TimeCDT,TemperatureF,Dew PointF,Humidity,Sea Level PressureIn,VisibilityMPH,Wind Direction,Wind SpeedMPH,Gust SpeedMPH,PrecipitationIn,Events,Conditions,WindDirDegrees,DateUTC
12:15 AM,48.2,44.6,87,30.16,10.0,North,16.1,25.3,N/A,,Overcast,10,2012-10-06 05:15:00
12:35 AM,48.2,42.8,82,30.18,10.0,North,17.3,27.6,N/A,,Overcast,360,2012-10-06 05:35:00
12:55 AM,48.2,42.8,82,30.17,10.0,North,19.6,27.6,N/A,,Overcast,10,2012-10-06 05:55:00
1:15 AM,48.2,42.8,82,30.17,10.0,North,17.3,25.3,N/A,,Mostly Cloudy,10,2012-10-06 06:15:00
1:35 AM,48.2,42.8,82,30.17,10.0,NNE,16.1,25.3,N/A,,Overcast,20,2012-10-06 06:35:00
1:56 AM,48.2,42.8,82,30.18,10.0,North,13.8,-,N/A,,Overcast,10,2012-10-06 06:56:00
2:15 AM,48.2,42.8,82,30.18,10.0,North,18.4,-,N/A,,Overcast,10,2012-10-06 07:15:00
2:35 AM,48.2,41.0,76,30.19,10.0,North,15.0,21.9,N/A,,Overcast,10,2012-10-06 07:35:00
2:55 AM,48.2,42.8,82,30.17,10.0,NNE,13.8,-,N/A,,Overcast,20,2012-10-06 07:55:00
3:15 AM,48.2,41.0,76,30.17,10.0,NNE,17.3,24.2,N/A,,Overcast,20,2012-10-06 08:15:00
3:35 AM,48.2,39.2,71,30.17,10.0,North,17.3,23.0,N/A,,Overcast,10,2012-10-06 08:35:00
3:55 AM,48.2,39.2,71,30.18,10.0,North,17.3,21.9,N/A,,Overcast,10,2012-10-06 08:55:00
4:16 AM,46.4,39.2,76,30.18,10.0,North,18.4,24.2,N/A,,Overcast,10,2012-10-06 09:16:00
4:35 AM,46.4,39.2,76,30.18,10.0,NNE,13.8,-,N/A,,Overcast,20,2012-10-06 09:35:00
4:55 AM,46.4,39.2,76,30.18,10.0,NNE,18.4,24.2,N/A,,Overcast,20,2012-10-06 09:55:00
5:15 AM,46.4,37.4,71,30.20,10.0,North,18.4,-,N/A,,Overcast,10,2012-10-06 10:15:00
5:35 AM,46.4,39.2,76,30.20,10.0,North,16.1,25.3,N/A,,Overcast,10,2012-10-06 10:35:00
5:55 AM,46.4,39.2,76,30.21,10.0,North,16.1,-,N/A,,Overcast,10,2012-10-06 10:55:00
6:15 AM,46.4,37.4,71,30.21,10.0,North,19.6,-,N/A,,Overcast,10,2012-10-06 11:15:00
6:35 AM,46.4,37.4,71,30.22,10.0,North,17.3,24.2,N/A,,Overcast,10,2012-10-06 11:35:00
6:55 AM,46.4,37.4,71,30.22,10.0,NNE,19.6,-,N/A,,Overcast,20,2012-10-06 11:55:00
7:15 AM,46.4,37.4,71,30.23,10.0,North,17.3,21.9,N/A,,Overcast,10,2012-10-06 12:15:00
7:35 AM,46.4,35.6,66,30.23,10.0,NNE,15.0,21.9,N/A,,Overcast,20,2012-10-06 12:35:00
7:55 AM,46.4,35.6,66,30.23,10.0,NNE,19.6,-,N/A,,Overcast,20,2012-10-06 12:55:00
8:15 AM,46.4,35.6,66,30.24,10.0,NNE,17.3,-,N/A,,Overcast,20,2012-10-06 13:15:00
8:35 AM,46.4,35.6,66,30.24,10.0,NNE,18.4,24.2,N/A,,Overcast,20,2012-10-06 13:35:00
8:55 AM,46.4,35.6,66,30.25,10.0,NNE,18.4,-,N/A,,Overcast,20,2012-10-06 13:55:00
9:15 AM,48.2,35.6,62,30.24,10.0,NE,18.4,23.0,N/A,,Overcast,40,2012-10-06 14:15:00
9:35 AM,48.2,35.6,62,30.24,10.0,NNE,17.3,20.7,N/A,,Overcast,20,2012-10-06 14:35:00
9:55 AM,50.0,35.6,58,30.21,10.0,NE,20.7,-,N/A,,Overcast,40,2012-10-06 14:55:00
10:15 AM,51.8,33.8,50,30.18,10.0,NE,19.6,-,N/A,,Mostly Cloudy,50,2012-10-06 15:15:00
10:36 AM,51.8,33.8,50,30.20,10.0,NE,18.4,24.2,N/A,,Mostly Cloudy,50,2012-10-06 15:36:00
10:55 AM,53.6,33.8,47,30.20,10.0,NE,15.0,-,N/A,,Mostly Cloudy,40,2012-10-06 15:55:00
11:15 AM,51.8,33.8,50,30.22,10.0,NNE,15.0,-,N/A,,Overcast,20,2012-10-06 16:15:00
11:35 AM,51.8,35.6,54,30.23,10.0,North,11.5,-,N/A,Thunderstorm,Overcast,10,2012-10-06 16:35:00
11:55 AM,51.8,33.8,50,30.23,10.0,North,16.1,-,N/A,Thunderstorm,Overcast,360,2012-10-06 16:55:00
12:15 PM,48.2,37.4,66,30.22,10.0,NNE,8.1,-,0.07,Thunderstorm,Thunderstorm,20,2012-10-06 17:15:00
12:35 PM,46.4,39.2,76,30.21,10.0,North,10.4,19.6,0.13,Thunderstorm,Overcast,10,2012-10-06 17:35:00
1:15 PM,44.6,39.2,81,30.23,4.0,NNW,13.8,-,0.05,Thunderstorm,Overcast,340,2012-10-06 18:15:00
1:35 PM,44.6,39.2,81,30.23,8.0,NNW,15.0,-,0.08,Thunderstorm,Overcast,330,2012-10-06 18:35:00
1:55 PM,44.6,39.2,81,30.21,10.0,North,11.5,-,0.09,Thunderstorm,Overcast,10,2012-10-06 18:55:00
2:15 PM,46.4,39.2,76,30.20,10.0,North,9.2,-,N/A,Thunderstorm,Overcast,360,2012-10-06 19:15:00
2:35 PM,44.6,39.2,81,30.20,9.0,North,10.4,-,0.08,,Overcast,360,2012-10-06 19:35:00
2:55 PM,46.4,41.0,81,30.21,10.0,NNW,6.9,-,0.12,,Overcast,330,2012-10-06 19:55:00
3:15 PM,46.4,41.0,81,30.20,10.0,North,8.1,-,N/A,Thunderstorm,Overcast,360,2012-10-06 20:15:00
3:35 PM,46.4,41.0,81,30.20,10.0,North,6.9,-,0.01,,Overcast,350,2012-10-06 20:35:00
4:16 PM,48.2,42.8,82,30.17,10.0,North,8.1,-,N/A,,Overcast,10,2012-10-06 21:16:00
4:35 PM,48.2,42.8,82,30.18,10.0,North,8.1,-,N/A,,Overcast,360,2012-10-06 21:35:00
4:55 PM,50.0,42.8,76,30.18,10.0,North,11.5,-,N/A,Thunderstorm,Overcast,360,2012-10-06 21:55:00
5:15 PM,48.2,41.0,76,30.19,10.0,North,11.5,-,N/A,,Overcast,350,2012-10-06 22:15:00
5:35 PM,48.2,41.0,76,30.17,10.0,North,8.1,-,N/A,,Overcast,360,2012-10-06 22:35:00
5:56 PM,48.2,42.8,82,30.18,10.0,North,8.1,-,N/A,,Overcast,360,2012-10-06 22:56:00
6:15 PM,48.2,41.0,76,30.20,10.0,North,10.4,-,N/A,,Overcast,360,2012-10-06 23:15:00
6:35 PM,48.2,41.0,76,30.19,10.0,North,10.4,-,N/A,,Overcast,10,2012-10-06 23:35:00
6:55 PM,48.2,41.0,76,30.19,10.0,North,12.7,-,N/A,,Overcast,350,2012-10-06 23:55:00
7:15 PM,48.2,41.0,76,30.20,10.0,North,15.0,-,N/A,,Overcast,360,2012-10-07 00:15:00
7:35 PM,48.2,39.2,71,30.20,10.0,North,18.4,25.3,N/A,,Overcast,360,2012-10-07 00:35:00
7:55 PM,46.4,37.4,71,30.20,10.0,North,15.0,24.2,N/A,,Overcast,10,2012-10-07 00:55:00
8:15 PM,46.4,37.4,71,30.20,10.0,NNE,15.0,-,N/A,,Overcast,20,2012-10-07 01:15:00
8:35 PM,46.4,37.4,71,30.24,10.0,North,10.4,-,N/A,,Overcast,10,2012-10-07 01:35:00
8:55 PM,46.4,39.2,76,30.23,10.0,North,10.4,-,N/A,,Overcast,10,2012-10-07 01:55:00
9:15 PM,46.4,39.2,76,30.25,10.0,North,8.1,-,N/A,,Overcast,10,2012-10-07 02:15:00
9:35 PM,46.4,39.2,76,30.21,10.0,NNE,9.2,-,N/A,,Overcast,30,2012-10-07 02:35:00
9:56 PM,46.4,39.2,76,30.23,10.0,North,9.2,-,N/A,,Overcast,10,2012-10-07 02:56:00
10:15 PM,46.4,39.2,76,30.25,10.0,North,10.4,-,N/A,,Overcast,360,2012-10-07 03:15:00
10:35 PM,46.4,39.2,76,30.24,10.0,North,10.4,-,N/A,,Overcast,10,2012-10-07 03:35:00
10:55 PM,46.4,39.2,76,30.25,10.0,North,6.9,-,N/A,,Overcast,10,2012-10-07 03:55:00
11:15 PM,46.4,39.2,76,30.25,10.0,NNE,9.2,-,N/A,,Overcast,20,2012-10-07 04:15:00
11:35 PM,46.4,39.2,76,30.25,10.0,North,8.1,-,N/A,,Overcast,10,2012-10-07 04:35:00
11:55 PM,46.4,37.4,71,30.25,10.0,North,6.9,-,N/A,,Overcast,10,2012-10-07 04:55:00